Terminal Aerodrome Forecast
Issued by NWS

Home | Current Version | Previous Version | Text Only | Print | Product List | Glossary On
Versions: 1 2 3 4 5 6 7 8 9 10 11 12 13 14 15 16 17 18
000
FTUS41 KPBZ 191255 AAA
TAFHLG
TAF AMD
KHLG 191255Z 1913/2012 31012G22KT 2SM -SN BR OVC005
     FM191500 33012G24KT 3SM -SHSN OVC005
     FM191800 32013G26KT P6SM VCSH BKN025
     FM192200 31012KT P6SM BKN025
     FM200300 32008KT P6SM SCT020=

USA.gov is the U.S. government's official web portal to all federal, state and local government web resources and services.